sensor_id;sensor_type;location;lat;lon;timestamp;temperature;humidity
65239;SHT30;51827;51.186;6.926;2023-08-12T00:00:17;23.70;70.43
65239;SHT30;51827;51.186;6.926;2023-08-12T00:01:17;23.73;70.48
65239;SHT30;51827;51.186;6.926;2023-08-12T00:02:17;23.73;70.50
65239;SHT30;51827;51.186;6.926;2023-08-12T00:03:17;23.74;70.47
65239;SHT30;51827;51.186;6.926;2023-08-12T00:04:18;23.71;70.48
65239;SHT30;51827;51.186;6.926;2023-08-12T00:05:18;23.71;70.51
65239;SHT30;51827;51.186;6.926;2023-08-12T00:06:18;23.71;70.55
65239;SHT30;51827;51.186;6.926;2023-08-12T00:07:18;23.73;70.48
65239;SHT30;51827;51.186;6.926;2023-08-12T00:08:19;23.73;70.49
65239;SHT30;51827;51.186;6.926;2023-08-12T00:09:19;23.73;70.51
65239;SHT30;51827;51.186;6.926;2023-08-12T00:10:20;23.71;70.52
65239;SHT30;51827;51.186;6.926;2023-08-12T00:11:20;23.73;70.55
65239;SHT30;51827;51.186;6.926;2023-08-12T00:12:20;23.73;70.56
65239;SHT30;51827;51.186;6.926;2023-08-12T00:13:20;23.74;70.53
65239;SHT30;51827;51.186;6.926;2023-08-12T00:14:21;23.73;70.52
65239;SHT30;51827;51.186;6.926;2023-08-12T00:15:21;23.70;70.52
65239;SHT30;51827;51.186;6.926;2023-08-12T00:16:21;23.75;70.46
65239;SHT30;51827;51.186;6.926;2023-08-12T00:17:21;23.70;70.47
65239;SHT30;51827;51.186;6.926;2023-08-12T00:18:22;23.71;70.49
65239;SHT30;51827;51.186;6.926;2023-08-12T00:19:23;23.71;70.57
65239;SHT30;51827;51.186;6.926;2023-08-12T00:20:23;23.73;70.51
65239;SHT30;51827;51.186;6.926;2023-08-12T00:21:24;23.73;70.50
65239;SHT30;51827;51.186;6.926;2023-08-12T00:22:25;23.73;70.58
65239;SHT30;51827;51.186;6.926;2023-08-12T00:23:25;23.71;70.57
65239;SHT30;51827;51.186;6.926;2023-08-12T00:24:25;23.71;70.55
65239;SHT30;51827;51.186;6.926;2023-08-12T00:25:26;23.71;70.54
65239;SHT30;51827;51.186;6.926;2023-08-12T00:26:26;23.73;70.51
65239;SHT30;51827;51.186;6.926;2023-08-12T00:27:26;23.73;70.57
65239;SHT30;51827;51.186;6.926;2023-08-12T00:28:26;23.74;70.62
65239;SHT30;51827;51.186;6.926;2023-08-12T00:29:27;23.73;70.59
65239;SHT30;51827;51.186;6.926;2023-08-12T00:30:27;23.74;70.54
65239;SHT30;51827;51.186;6.926;2023-08-12T00:31:27;23.71;70.59
65239;SHT30;51827;51.186;6.926;2023-08-12T00:32:27;23.71;70.62
65239;SHT30;51827;51.186;6.926;2023-08-12T00:33:28;23.73;70.57
65239;SHT30;51827;51.186;6.926;2023-08-12T00:34:28;23.71;70.60
65239;SHT30;51827;51.186;6.926;2023-08-12T00:35:28;23.73;70.59
65239;SHT30;51827;51.186;6.926;2023-08-12T00:36:29;23.74;70.64
65239;SHT30;51827;51.186;6.926;2023-08-12T00:37:29;23.73;70.66
65239;SHT30;51827;51.186;6.926;2023-08-12T00:38:29;23.70;70.67
65239;SHT30;51827;51.186;6.926;2023-08-12T00:39:29;23.73;70.66
65239;SHT30;51827;51.186;6.926;2023-08-12T00:40:29;23.71;70.73
65239;SHT30;51827;51.186;6.926;2023-08-12T00:41:30;23.74;70.75
65239;SHT30;51827;51.186;6.926;2023-08-12T00:42:30;23.70;70.73
65239;SHT30;51827;51.186;6.926;2023-08-12T00:43:30;23.73;70.78
65239;SHT30;51827;51.186;6.926;2023-08-12T00:44:31;23.71;70.87
65239;SHT30;51827;51.186;6.926;2023-08-12T00:45:31;23.73;70.91
65239;SHT30;51827;51.186;6.926;2023-08-12T00:46:32;23.70;70.88
65239;SHT30;51827;51.186;6.926;2023-08-12T00:47:33;23.73;70.98
65239;SHT30;51827;51.186;6.926;2023-08-12T00:48:33;23.71;71.00
65239;SHT30;51827;51.186;6.926;2023-08-12T00:49:33;23.71;71.04
65239;SHT30;51827;51.186;6.926;2023-08-12T00:50:36;23.71;71.16
65239;SHT30;51827;51.186;6.926;2023-08-12T00:51:38;23.73;71.27
65239;SHT30;51827;51.186;6.926;2023-08-12T00:52:40;23.71;71.22
65239;SHT30;51827;51.186;6.926;2023-08-12T00:53:40;23.70;71.26
65239;SHT30;51827;51.186;6.926;2023-08-12T00:54:41;23.71;71.21
65239;SHT30;51827;51.186;6.926;2023-08-12T00:55:41;23.71;71.23
65239;SHT30;51827;51.186;6.926;2023-08-12T00:56:42;23.73;71.18
65239;SHT30;51827;51.186;6.926;2023-08-12T00:57:43;23.71;71.32
65239;SHT30;51827;51.186;6.926;2023-08-12T00:58:44;23.70;71.44
65239;SHT30;51827;51.186;6.926;2023-08-12T00:59:44;23.70;71.49
65239;SHT30;51827;51.186;6.926;2023-08-12T01:00:45;23.70;71.44
65239;SHT30;51827;51.186;6.926;2023-08-12T01:01:46;23.71;71.48
65239;SHT30;51827;51.186;6.926;2023-08-12T01:02:48;23.69;71.48
65239;SHT30;51827;51.186;6.926;2023-08-12T01:03:48;23.70;71.45
65239;SHT30;51827;51.186;6.926;2023-08-12T01:04:49;23.71;71.49
65239;SHT30;51827;51.186;6.926;2023-08-12T01:05:49;23.70;71.51
65239;SHT30;51827;51.186;6.926;2023-08-12T01:06:50;23.71;71.56
65239;SHT30;51827;51.186;6.926;2023-08-12T01:07:50;23.70;71.50
65239;SHT30;51827;51.186;6.926;2023-08-12T01:08:50;23.73;71.49
65239;SHT30;51827;51.186;6.926;2023-08-12T01:09:51;23.71;71.51
65239;SHT30;51827;51.186;6.926;2023-08-12T01:11:19;23.71;71.54
65239;SHT30;51827;51.186;6.926;2023-08-12T01:12:27;23.71;71.54
65239;SHT30;51827;51.186;6.926;2023-08-12T01:15:04;23.73;71.61
65239;SHT30;51827;51.186;6.926;2023-08-12T01:16:08;23.73;71.55
65239;SHT30;51827;51.186;6.926;2023-08-12T01:17:11;23.71;71.57
65239;SHT30;51827;51.186;6.926;2023-08-12T01:18:13;23.69;71.53
65239;SHT30;51827;51.186;6.926;2023-08-12T01:19:32;23.71;71.53
65239;SHT30;51827;51.186;6.926;2023-08-12T01:20:33;23.71;71.51
65239;SHT30;51827;51.186;6.926;2023-08-12T01:21:33;23.69;71.55
65239;SHT30;51827;51.186;6.926;2023-08-12T01:22:37;23.71;71.63
65239;SHT30;51827;51.186;6.926;2023-08-12T01:23:38;23.70;71.60
65239;SHT30;51827;51.186;6.926;2023-08-12T01:24:42;23.70;71.61
65239;SHT30;51827;51.186;6.926;2023-08-12T01:25:43;23.70;71.67
65239;SHT30;51827;51.186;6.926;2023-08-12T01:26:43;23.74;71.64
65239;SHT30;51827;51.186;6.926;2023-08-12T01:27:43;23.71;71.64
65239;SHT30;51827;51.186;6.926;2023-08-12T01:28:43;23.70;71.71
65239;SHT30;51827;51.186;6.926;2023-08-12T01:29:46;23.70;71.67
65239;SHT30;51827;51.186;6.926;2023-08-12T01:30:57;23.70;71.70
65239;SHT30;51827;51.186;6.926;2023-08-12T01:32:14;23.71;71.73
65239;SHT30;51827;51.186;6.926;2023-08-12T01:33:39;23.69;71.80
65239;SHT30;51827;51.186;6.926;2023-08-12T01:34:54;23.70;71.78
65239;SHT30;51827;51.186;6.926;2023-08-12T01:36:09;23.70;71.74
65239;SHT30;51827;51.186;6.926;2023-08-12T01:37:11;23.71;71.75
65239;SHT30;51827;51.186;6.926;2023-08-12T01:38:14;23.69;71.78
65239;SHT30;51827;51.186;6.926;2023-08-12T01:39:15;23.69;71.81
65239;SHT30;51827;51.186;6.926;2023-08-12T01:40:16;23.69;71.82
65239;SHT30;51827;51.186;6.926;2023-08-12T01:41:19;23.69;71.75
65239;SHT30;51827;51.186;6.926;2023-08-12T01:42:24;23.71;71.69
65239;SHT30;51827;51.186;6.926;2023-08-12T01:43:25;23.70;71.75
65239;SHT30;51827;51.186;6.926;2023-08-12T01:44:26;23.70;71.72
65239;SHT30;51827;51.186;6.926;2023-08-12T01:45:26;23.70;71.73
65239;SHT30;51827;51.186;6.926;2023-08-12T01:46:26;23.70;71.75
65239;SHT30;51827;51.186;6.926;2023-08-12T01:47:27;23.71;71.74
65239;SHT30;51827;51.186;6.926;2023-08-12T01:48:28;23.70;71.65
65239;SHT30;51827;51.186;6.926;2023-08-12T01:49:28;23.69;71.67
65239;SHT30;51827;51.186;6.926;2023-08-12T01:50:28;23.71;71.73
65239;SHT30;51827;51.186;6.926;2023-08-12T01:51:29;23.70;71.62
65239;SHT30;51827;51.186;6.926;2023-08-12T01:52:29;23.70;71.68
65239;SHT30;51827;51.186;6.926;2023-08-12T01:53:30;23.71;71.76
65239;SHT30;51827;51.186;6.926;2023-08-12T01:54:30;23.69;71.79
65239;SHT30;51827;51.186;6.926;2023-08-12T01:55:30;23.71;71.76
65239;SHT30;51827;51.186;6.926;2023-08-12T01:56:30;23.69;71.80
65239;SHT30;51827;51.186;6.926;2023-08-12T01:57:31;23.69;71.71
65239;SHT30;51827;51.186;6.926;2023-08-12T01:58:31;23.69;71.79
65239;SHT30;51827;51.186;6.926;2023-08-12T01:59:32;23.71;71.76
65239;SHT30;51827;51.186;6.926;2023-08-12T02:00:32;23.69;71.85
65239;SHT30;51827;51.186;6.926;2023-08-12T02:01:32;23.71;71.82
65239;SHT30;51827;51.186;6.926;2023-08-12T02:02:33;23.69;71.80
65239;SHT30;51827;51.186;6.926;2023-08-12T02:03:33;23.71;71.83
65239;SHT30;51827;51.186;6.926;2023-08-12T02:04:33;23.70;71.85
65239;SHT30;51827;51.186;6.926;2023-08-12T02:05:34;23.71;71.83
65239;SHT30;51827;51.186;6.926;2023-08-12T02:06:34;23.70;71.83
65239;SHT30;51827;51.186;6.926;2023-08-12T02:07:34;23.70;71.83
65239;SHT30;51827;51.186;6.926;2023-08-12T02:08:35;23.70;71.78
65239;SHT30;51827;51.186;6.926;2023-08-12T02:09:35;23.70;71.84
65239;SHT30;51827;51.186;6.926;2023-08-12T02:10:35;23.70;71.81
65239;SHT30;51827;51.186;6.926;2023-08-12T02:11:35;23.70;71.81
65239;SHT30;51827;51.186;6.926;2023-08-12T02:12:36;23.70;71.77
65239;SHT30;51827;51.186;6.926;2023-08-12T02:13:36;23.71;71.86
65239;SHT30;51827;51.186;6.926;2023-08-12T02:14:36;23.71;71.83
65239;SHT30;51827;51.186;6.926;2023-08-12T02:15:36;23.74;71.87
65239;SHT30;51827;51.186;6.926;2023-08-12T02:16:37;23.70;71.89
65239;SHT30;51827;51.186;6.926;2023-08-12T02:17:37;23.71;71.90
65239;SHT30;51827;51.186;6.926;2023-08-12T02:18:37;23.69;71.86
65239;SHT30;51827;51.186;6.926;2023-08-12T02:19:37;23.71;71.87
65239;SHT30;51827;51.186;6.926;2023-08-12T02:20:40;23.69;71.84
65239;SHT30;51827;51.186;6.926;2023-08-12T02:21:41;23.70;71.83
65239;SHT30;51827;51.186;6.926;2023-08-12T02:22:41;23.70;71.92
65239;SHT30;51827;51.186;6.926;2023-08-12T02:23:42;23.70;71.80
65239;SHT30;51827;51.186;6.926;2023-08-12T02:24:42;23.69;71.87
65239;SHT30;51827;51.186;6.926;2023-08-12T02:25:42;23.69;71.85
65239;SHT30;51827;51.186;6.926;2023-08-12T02:26:42;23.71;71.89
65239;SHT30;51827;51.186;6.926;2023-08-12T02:27:43;23.71;71.72
65239;SHT30;51827;51.186;6.926;2023-08-12T02:28:43;23.73;71.82
65239;SHT30;51827;51.186;6.926;2023-08-12T02:29:43;23.67;71.88
65239;SHT30;51827;51.186;6.926;2023-08-12T02:30:43;23.69;71.91
65239;SHT30;51827;51.186;6.926;2023-08-12T02:31:44;23.70;71.75
65239;SHT30;51827;51.186;6.926;2023-08-12T02:32:44;23.69;71.85
65239;SHT30;51827;51.186;6.926;2023-08-12T02:33:44;23.70;71.89
65239;SHT30;51827;51.186;6.926;2023-08-12T02:34:45;23.70;71.87
65239;SHT30;51827;51.186;6.926;2023-08-12T02:35:45;23.70;71.91
65239;SHT30;51827;51.186;6.926;2023-08-12T02:36:45;23.70;71.85
65239;SHT30;51827;51.186;6.926;2023-08-12T02:37:48;23.71;71.83
65239;SHT30;51827;51.186;6.926;2023-08-12T02:38:48;23.71;71.76
65239;SHT30;51827;51.186;6.926;2023-08-12T02:39:48;23.69;71.88
65239;SHT30;51827;51.186;6.926;2023-08-12T02:40:49;23.71;71.97
65239;SHT30;51827;51.186;6.926;2023-08-12T02:41:49;23.70;71.96
65239;SHT30;51827;51.186;6.926;2023-08-12T02:42:50;23.71;71.94
65239;SHT30;51827;51.186;6.926;2023-08-12T02:43:50;23.69;72.03
65239;SHT30;51827;51.186;6.926;2023-08-12T02:44:50;23.69;71.98
65239;SHT30;51827;51.186;6.926;2023-08-12T02:45:51;23.70;72.06
65239;SHT30;51827;51.186;6.926;2023-08-12T02:46:51;23.66;72.24
65239;SHT30;51827;51.186;6.926;2023-08-12T02:47:51;23.67;72.05
65239;SHT30;51827;51.186;6.926;2023-08-12T02:48:52;23.69;72.04
65239;SHT30;51827;51.186;6.926;2023-08-12T02:49:53;23.66;71.73
65239;SHT30;51827;51.186;6.926;2023-08-12T02:50:53;23.66;71.95
65239;SHT30;51827;51.186;6.926;2023-08-12T02:51:53;23.66;72.18
65239;SHT30;51827;51.186;6.926;2023-08-12T02:52:54;23.66;72.19
65239;SHT30;51827;51.186;6.926;2023-08-12T02:53:54;23.64;72.14
65239;SHT30;51827;51.186;6.926;2023-08-12T02:54:54;23.63;72.41
65239;SHT30;51827;51.186;6.926;2023-08-12T02:55:54;23.66;72.25
65239;SHT30;51827;51.186;6.926;2023-08-12T02:56:54;23.64;72.00
65239;SHT30;51827;51.186;6.926;2023-08-12T02:57:55;23.64;72.11
65239;SHT30;51827;51.186;6.926;2023-08-12T02:58:55;23.63;72.14
65239;SHT30;51827;51.186;6.926;2023-08-12T02:59:55;23.66;72.04
65239;SHT30;51827;51.186;6.926;2023-08-12T03:00:55;23.66;71.98
65239;SHT30;51827;51.186;6.926;2023-08-12T03:01:56;23.66;71.91
65239;SHT30;51827;51.186;6.926;2023-08-12T03:02:56;23.66;72.09
65239;SHT30;51827;51.186;6.926;2023-08-12T03:03:56;23.66;72.11
65239;SHT30;51827;51.186;6.926;2023-08-12T03:04:57;23.66;71.93
65239;SHT30;51827;51.186;6.926;2023-08-12T03:05:57;23.69;71.95
65239;SHT30;51827;51.186;6.926;2023-08-12T03:06:57;23.66;72.00
65239;SHT30;51827;51.186;6.926;2023-08-12T03:07:57;23.66;72.02
65239;SHT30;51827;51.186;6.926;2023-08-12T03:08:58;23.67;72.07
65239;SHT30;51827;51.186;6.926;2023-08-12T03:09:58;23.66;72.13
65239;SHT30;51827;51.186;6.926;2023-08-12T03:11:00;23.66;72.14
65239;SHT30;51827;51.186;6.926;2023-08-12T03:12:00;23.63;72.10
65239;SHT30;51827;51.186;6.926;2023-08-12T03:13:00;23.64;72.12
65239;SHT30;51827;51.186;6.926;2023-08-12T03:14:00;23.66;72.17
65239;SHT30;51827;51.186;6.926;2023-08-12T03:15:02;23.64;72.42
65239;SHT30;51827;51.186;6.926;2023-08-12T03:16:02;23.66;71.89
65239;SHT30;51827;51.186;6.926;2023-08-12T03:17:03;23.64;72.27
65239;SHT30;51827;51.186;6.926;2023-08-12T03:18:03;23.66;71.98
65239;SHT30;51827;51.186;6.926;2023-08-12T03:19:03;23.66;72.16
65239;SHT30;51827;51.186;6.926;2023-08-12T03:20:05;23.66;72.25
65239;SHT30;51827;51.186;6.926;2023-08-12T03:21:07;23.64;72.10
65239;SHT30;51827;51.186;6.926;2023-08-12T03:22:08;23.66;72.25
65239;SHT30;51827;51.186;6.926;2023-08-12T03:23:08;23.64;72.26
65239;SHT30;51827;51.186;6.926;2023-08-12T03:24:08;23.66;72.55
65239;SHT30;51827;51.186;6.926;2023-08-12T03:25:09;23.64;72.49
65239;SHT30;51827;51.186;6.926;2023-08-12T03:26:09;23.63;72.78
65239;SHT30;51827;51.186;6.926;2023-08-12T03:27:09;23.63;72.52
65239;SHT30;51827;51.186;6.926;2023-08-12T03:28:09;23.64;72.65
65239;SHT30;51827;51.186;6.926;2023-08-12T03:29:10;23.64;72.66
65239;SHT30;51827;51.186;6.926;2023-08-12T03:30:10;23.63;72.76
65239;SHT30;51827;51.186;6.926;2023-08-12T03:31:10;23.63;72.85
65239;SHT30;51827;51.186;6.926;2023-08-12T03:32:11;23.62;73.05
65239;SHT30;51827;51.186;6.926;2023-08-12T03:33:11;23.57;73.31
65239;SHT30;51827;51.186;6.926;2023-08-12T03:34:11;23.57;73.20
65239;SHT30;51827;51.186;6.926;2023-08-12T03:35:11;23.54;73.78
65239;SHT30;51827;51.186;6.926;2023-08-12T03:36:12;23.56;73.40
65239;SHT30;51827;51.186;6.926;2023-08-12T03:37:12;23.57;73.17
65239;SHT30;51827;51.186;6.926;2023-08-12T03:38:13;23.56;73.58
65239;SHT30;51827;51.186;6.926;2023-08-12T03:39:13;23.53;73.49
65239;SHT30;51827;51.186;6.926;2023-08-12T03:40:13;23.54;73.26
65239;SHT30;51827;51.186;6.926;2023-08-12T03:41:14;23.54;73.32
65239;SHT30;51827;51.186;6.926;2023-08-12T03:42:14;23.56;73.24
65239;SHT30;51827;51.186;6.926;2023-08-12T03:43:14;23.56;73.24
65239;SHT30;51827;51.186;6.926;2023-08-12T03:44:14;23.57;72.96
65239;SHT30;51827;51.186;6.926;2023-08-12T03:45:15;23.57;73.01
65239;SHT30;51827;51.186;6.926;2023-08-12T03:46:16;23.57;72.97
65239;SHT30;51827;51.186;6.926;2023-08-12T03:47:17;23.57;73.02
65239;SHT30;51827;51.186;6.926;2023-08-12T03:48:17;23.59;73.12
65239;SHT30;51827;51.186;6.926;2023-08-12T03:49:17;23.56;73.01
65239;SHT30;51827;51.186;6.926;2023-08-12T03:50:17;23.57;73.16
65239;SHT30;51827;51.186;6.926;2023-08-12T03:51:18;23.59;73.13
65239;SHT30;51827;51.186;6.926;2023-08-12T03:52:18;23.59;73.07
65239;SHT30;51827;51.186;6.926;2023-08-12T03:53:18;23.59;73.04
65239;SHT30;51827;51.186;6.926;2023-08-12T03:54:18;23.60;73.04
65239;SHT30;51827;51.186;6.926;2023-08-12T03:55:19;23.59;73.17
65239;SHT30;51827;51.186;6.926;2023-08-12T03:56:19;23.60;73.02
65239;SHT30;51827;51.186;6.926;2023-08-12T03:57:19;23.59;72.89
65239;SHT30;51827;51.186;6.926;2023-08-12T03:58:19;23.59;73.07
65239;SHT30;51827;51.186;6.926;2023-08-12T03:59:20;23.62;73.10
65239;SHT30;51827;51.186;6.926;2023-08-12T04:00:20;23.62;72.89
65239;SHT30;51827;51.186;6.926;2023-08-12T04:01:20;23.64;72.97
65239;SHT30;51827;51.186;6.926;2023-08-12T04:02:20;23.63;72.91
65239;SHT30;51827;51.186;6.926;2023-08-12T04:03:21;23.62;73.03
65239;SHT30;51827;51.186;6.926;2023-08-12T04:04:21;23.63;72.93
65239;SHT30;51827;51.186;6.926;2023-08-12T04:05:21;23.62;72.83
65239;SHT30;51827;51.186;6.926;2023-08-12T04:06:21;23.60;73.28
65239;SHT30;51827;51.186;6.926;2023-08-12T04:07:22;23.62;72.94
65239;SHT30;51827;51.186;6.926;2023-08-12T04:08:23;23.63;72.96
65239;SHT30;51827;51.186;6.926;2023-08-12T04:09:23;23.62;73.08
65239;SHT30;51827;51.186;6.926;2023-08-12T04:10:23;23.62;73.07
65239;SHT30;51827;51.186;6.926;2023-08-12T04:11:23;23.62;72.88
65239;SHT30;51827;51.186;6.926;2023-08-12T04:12:24;23.62;73.03
65239;SHT30;51827;51.186;6.926;2023-08-12T04:13:24;23.63;73.05
65239;SHT30;51827;51.186;6.926;2023-08-12T04:14:24;23.63;72.84
65239;SHT30;51827;51.186;6.926;2023-08-12T04:15:24;23.63;72.92
65239;SHT30;51827;51.186;6.926;2023-08-12T04:16:25;23.62;72.91
65239;SHT30;51827;51.186;6.926;2023-08-12T04:17:25;23.63;73.00
65239;SHT30;51827;51.186;6.926;2023-08-12T04:18:25;23.64;72.41
65239;SHT30;51827;51.186;6.926;2023-08-12T04:19:25;23.63;72.45
65239;SHT30;51827;51.186;6.926;2023-08-12T04:20:26;23.63;72.81
65239;SHT30;51827;51.186;6.926;2023-08-12T04:21:26;23.63;72.97
65239;SHT30;51827;51.186;6.926;2023-08-12T04:22:26;23.62;73.16
65239;SHT30;51827;51.186;6.926;2023-08-12T04:23:26;23.60;73.27
65239;SHT30;51827;51.186;6.926;2023-08-12T04:24:27;23.62;73.13
65239;SHT30;51827;51.186;6.926;2023-08-12T04:25:27;23.62;72.81
65239;SHT30;51827;51.186;6.926;2023-08-12T04:26:27;23.62;72.92
65239;SHT30;51827;51.186;6.926;2023-08-12T04:27:27;23.62;73.00
65239;SHT30;51827;51.186;6.926;2023-08-12T04:28:28;23.63;73.00
65239;SHT30;51827;51.186;6.926;2023-08-12T04:29:28;23.62;73.01
65239;SHT30;51827;51.186;6.926;2023-08-12T04:30:28;23.60;72.95
65239;SHT30;51827;51.186;6.926;2023-08-12T04:31:28;23.62;73.08
65239;SHT30;51827;51.186;6.926;2023-08-12T04:32:29;23.63;73.02
65239;SHT30;51827;51.186;6.926;2023-08-12T04:33:29;23.63;72.95
65239;SHT30;51827;51.186;6.926;2023-08-12T04:34:29;23.64;72.73
65239;SHT30;51827;51.186;6.926;2023-08-12T04:35:31;23.64;72.77
65239;SHT30;51827;51.186;6.926;2023-08-12T04:36:31;23.63;72.98
65239;SHT30;51827;51.186;6.926;2023-08-12T04:37:32;23.62;73.01
65239;SHT30;51827;51.186;6.926;2023-08-12T04:38:32;23.63;72.95
65239;SHT30;51827;51.186;6.926;2023-08-12T04:39:32;23.63;72.79
65239;SHT30;51827;51.186;6.926;2023-08-12T04:40:33;23.64;72.67
65239;SHT30;51827;51.186;6.926;2023-08-12T04:41:33;23.64;72.77
65239;SHT30;51827;51.186;6.926;2023-08-12T04:42:34;23.63;72.46
65239;SHT30;51827;51.186;6.926;2023-08-12T04:43:34;23.63;72.67
65239;SHT30;51827;51.186;6.926;2023-08-12T04:44:34;23.64;72.61
65239;SHT30;51827;51.186;6.926;2023-08-12T04:45:34;23.63;72.79
65239;SHT30;51827;51.186;6.926;2023-08-12T04:46:35;23.63;72.83
65239;SHT30;51827;51.186;6.926;2023-08-12T04:47:35;23.63;72.77
65239;SHT30;51827;51.186;6.926;2023-08-12T04:48:35;23.63;72.68
65239;SHT30;51827;51.186;6.926;2023-08-12T04:49:35;23.64;72.60
65239;SHT30;51827;51.186;6.926;2023-08-12T04:50:36;23.64;72.80
65239;SHT30;51827;51.186;6.926;2023-08-12T04:51:36;23.62;72.68
65239;SHT30;51827;51.186;6.926;2023-08-12T04:52:36;23.63;72.61
65239;SHT30;51827;51.186;6.926;2023-08-12T04:53:36;23.66;72.75
65239;SHT30;51827;51.186;6.926;2023-08-12T04:54:37;23.62;72.36
65239;SHT30;51827;51.186;6.926;2023-08-12T04:55:37;23.63;72.55
65239;SHT30;51827;51.186;6.926;2023-08-12T04:56:37;23.63;72.78
65239;SHT30;51827;51.186;6.926;2023-08-12T04:57:37;23.63;72.78
65239;SHT30;51827;51.186;6.926;2023-08-12T04:58:38;23.63;72.79
65239;SHT30;51827;51.186;6.926;2023-08-12T04:59:38;23.62;72.79
65239;SHT30;51827;51.186;6.926;2023-08-12T05:00:38;23.64;72.83
65239;SHT30;51827;51.186;6.926;2023-08-12T05:01:38;23.64;72.81
65239;SHT30;51827;51.186;6.926;2023-08-12T05:02:39;23.63;72.90
65239;SHT30;51827;51.186;6.926;2023-08-12T05:03:39;23.62;72.61
65239;SHT30;51827;51.186;6.926;2023-08-12T05:04:39;23.62;72.96
65239;SHT30;51827;51.186;6.926;2023-08-12T05:05:39;23.64;72.84
65239;SHT30;51827;51.186;6.926;2023-08-12T05:06:39;23.63;72.88
65239;SHT30;51827;51.186;6.926;2023-08-12T05:07:40;23.63;72.92
65239;SHT30;51827;51.186;6.926;2023-08-12T05:08:40;23.62;73.02
65239;SHT30;51827;51.186;6.926;2023-08-12T05:09:40;23.63;72.82
65239;SHT30;51827;51.186;6.926;2023-08-12T05:10:40;23.64;72.79
65239;SHT30;51827;51.186;6.926;2023-08-12T05:11:41;23.62;72.54
65239;SHT30;51827;51.186;6.926;2023-08-12T05:12:42;23.62;72.91
65239;SHT30;51827;51.186;6.926;2023-08-12T05:13:42;23.63;72.86
65239;SHT30;51827;51.186;6.926;2023-08-12T05:14:42;23.57;73.07
65239;SHT30;51827;51.186;6.926;2023-08-12T05:15:48;23.64;72.92
65239;SHT30;51827;51.186;6.926;2023-08-12T05:16:48;23.60;72.71
65239;SHT30;51827;51.186;6.926;2023-08-12T05:17:48;23.62;72.67
65239;SHT30;51827;51.186;6.926;2023-08-12T05:18:49;23.62;72.74
65239;SHT30;51827;51.186;6.926;2023-08-12T05:19:49;23.62;72.81
65239;SHT30;51827;51.186;6.926;2023-08-12T05:20:51;23.60;73.01
65239;SHT30;51827;51.186;6.926;2023-08-12T05:21:51;23.60;73.04
65239;SHT30;51827;51.186;6.926;2023-08-12T05:22:51;23.60;73.13
65239;SHT30;51827;51.186;6.926;2023-08-12T05:23:52;23.59;73.06
65239;SHT30;51827;51.186;6.926;2023-08-12T05:24:52;23.60;73.06
65239;SHT30;51827;51.186;6.926;2023-08-12T05:25:52;23.60;72.99
65239;SHT30;51827;51.186;6.926;2023-08-12T05:26:52;23.59;73.06
65239;SHT30;51827;51.186;6.926;2023-08-12T05:27:53;23.60;72.90
65239;SHT30;51827;51.186;6.926;2023-08-12T05:28:53;23.59;73.02
65239;SHT30;51827;51.186;6.926;2023-08-12T05:29:53;23.59;73.22
65239;SHT30;51827;51.186;6.926;2023-08-12T05:30:53;23.60;73.25
65239;SHT30;51827;51.186;6.926;2023-08-12T05:31:54;23.60;73.21
65239;SHT30;51827;51.186;6.926;2023-08-12T05:32:54;23.60;73.26
65239;SHT30;51827;51.186;6.926;2023-08-12T05:33:54;23.60;73.21
65239;SHT30;51827;51.186;6.926;2023-08-12T05:34:55;23.60;72.88
65239;SHT30;51827;51.186;6.926;2023-08-12T05:35:55;23.60;72.61
65239;SHT30;51827;51.186;6.926;2023-08-12T05:36:55;23.57;72.79
65239;SHT30;51827;51.186;6.926;2023-08-12T05:37:58;23.56;72.96
65239;SHT30;51827;51.186;6.926;2023-08-12T05:38:59;23.59;72.96
65239;SHT30;51827;51.186;6.926;2023-08-12T05:39:59;23.60;72.75
65239;SHT30;51827;51.186;6.926;2023-08-12T05:40:59;23.57;72.84
65239;SHT30;51827;51.186;6.926;2023-08-12T05:41:59;23.60;72.94
65239;SHT30;51827;51.186;6.926;2023-08-12T05:43:00;23.59;72.94
65239;SHT30;51827;51.186;6.926;2023-08-12T05:44:00;23.60;73.10
65239;SHT30;51827;51.186;6.926;2023-08-12T05:45:00;23.57;73.03
65239;SHT30;51827;51.186;6.926;2023-08-12T05:46:01;23.59;73.27
65239;SHT30;51827;51.186;6.926;2023-08-12T05:47:01;23.56;73.45
65239;SHT30;51827;51.186;6.926;2023-08-12T05:48:01;23.59;73.39
65239;SHT30;51827;51.186;6.926;2023-08-12T05:49:01;23.57;73.71
65239;SHT30;51827;51.186;6.926;2023-08-12T05:50:02;23.57;73.77
65239;SHT30;51827;51.186;6.926;2023-08-12T05:51:02;23.57;74.17
65239;SHT30;51827;51.186;6.926;2023-08-12T05:52:03;23.56;73.89
65239;SHT30;51827;51.186;6.926;2023-08-12T05:53:03;23.54;73.92
65239;SHT30;51827;51.186;6.926;2023-08-12T05:54:04;23.54;74.14
65239;SHT30;51827;51.186;6.926;2023-08-12T05:55:04;23.53;74.16
65239;SHT30;51827;51.186;6.926;2023-08-12T05:56:05;23.53;74.23
65239;SHT30;51827;51.186;6.926;2023-08-12T05:57:05;23.57;74.29
65239;SHT30;51827;51.186;6.926;2023-08-12T05:58:07;23.56;74.35
65239;SHT30;51827;51.186;6.926;2023-08-12T05:59:07;23.56;74.24
65239;SHT30;51827;51.186;6.926;2023-08-12T06:00:08;23.57;74.02
65239;SHT30;51827;51.186;6.926;2023-08-12T06:01:08;23.54;73.91
65239;SHT30;51827;51.186;6.926;2023-08-12T06:02:08;23.57;74.31
65239;SHT30;51827;51.186;6.926;2023-08-12T06:03:08;23.54;74.48
65239;SHT30;51827;51.186;6.926;2023-08-12T06:04:09;23.56;74.59
65239;SHT30;51827;51.186;6.926;2023-08-12T06:05:09;23.54;74.80
65239;SHT30;51827;51.186;6.926;2023-08-12T06:06:09;23.53;74.93
65239;SHT30;51827;51.186;6.926;2023-08-12T06:07:10;23.52;74.92
65239;SHT30;51827;51.186;6.926;2023-08-12T06:08:10;23.53;74.93
65239;SHT30;51827;51.186;6.926;2023-08-12T06:09:10;23.53;74.71
65239;SHT30;51827;51.186;6.926;2023-08-12T06:10:10;23.53;74.66
65239;SHT30;51827;51.186;6.926;2023-08-12T06:11:11;23.54;74.66
65239;SHT30;51827;51.186;6.926;2023-08-12T06:12:11;23.56;74.53
65239;SHT30;51827;51.186;6.926;2023-08-12T06:13:11;23.57;74.44
65239;SHT30;51827;51.186;6.926;2023-08-12T06:14:11;23.57;74.33
65239;SHT30;51827;51.186;6.926;2023-08-12T06:15:12;23.57;74.36
65239;SHT30;51827;51.186;6.926;2023-08-12T06:16:12;23.57;74.34
65239;SHT30;51827;51.186;6.926;2023-08-12T06:17:12;23.59;74.33
65239;SHT30;51827;51.186;6.926;2023-08-12T06:18:12;23.60;74.19
65239;SHT30;51827;51.186;6.926;2023-08-12T06:19:13;23.62;74.19
65239;SHT30;51827;51.186;6.926;2023-08-12T06:20:13;23.59;74.15
65239;SHT30;51827;51.186;6.926;2023-08-12T06:21:13;23.64;73.87
65239;SHT30;51827;51.186;6.926;2023-08-12T06:22:14;23.60;73.69
65239;SHT30;51827;51.186;6.926;2023-08-12T06:23:15;23.66;73.56
65239;SHT30;51827;51.186;6.926;2023-08-12T06:24:16;23.63;73.75
65239;SHT30;51827;51.186;6.926;2023-08-12T06:25:16;23.62;73.86